Ana Sayfa
METAR-TAF:

METAR-TAF

Havaalanları :

Nanning, Çin

Enlem: 22-49N, Boylam: 108-21E, yükseklik: 73 m

Güncel hava durumu gözlemi

Rapor saat 09:00 UTC de 45 dakika önce yapıldı.
Rüzgar kuzeybatıdan 4 kt, batı ve kuzey arasında değişken
Sıcaklık 19°C
Nem 88%
Basınç 1013 hPa
Görüş mesafesi 10 km veya daha fazla
1300 ft yükseklikte parçalı bulutlu
3000 ft yükseklikte çok bulutlu

METAR: ZGNN 170900Z 32002MPS 280V360 9999 SCT013 OVC030 19/17 Q1013 NOSIG

Saat: 17:45 (09:45 UTC)

Tahmin

Rapor saat 03:05 UTC de 6 saat ve 40 dakika önce yapıldı.
Ayın 17'si saat 06 UTC'den ayın 18'si saat 06 UTC'ye kadar geçerli Tahmin
Rüzgar kuzey/kuzeydoğudan 6 kt
Görüş mesafesi: 7000 m
3000 ft yükseklikte parçalı çok bulutlu

TAF: ZGNN 170305Z 1706/1806 03003MPS 7000 BKN030 TX22/1707Z TN18/1722Z

4.000'den fazla havaalanı için hava durumu gözlemleri ve tahminleri (METAR ve TAF raporları).

Kullanılabilir istasyonlar harita üzerinde sarı ve kırmızı noktalarla gösterilir.

İstasyonun adını görmek için fareyi noktanın üzerinde gezdirin.

Sonrasında hava gözlem ve tahminlerini görmek için tıklayın.

Haritayı değiştirmek için: yaklaştırmak için siyah artı işaretli yeşil düğmeye ve uzaklaştırmak için de eksi işaretli düğmeye hızla tıklayın; bitişik haritalar için yeşil okları kullanın.


METAR-TAF: